createdAt,value
2019-05-10T00:00:43.914Z,12.92
2019-05-10T00:01:43.914Z,12.94
2019-05-10T00:02:43.903Z,12.87
2019-05-10T00:03:43.884Z,12.92
2019-05-10T00:04:43.870Z,12.85
2019-05-10T00:05:43.860Z,12.98
2019-05-10T00:06:43.851Z,12.98
2019-05-10T00:07:43.845Z,13.01
2019-05-10T00:08:43.853Z,12.85
2019-05-10T00:09:43.814Z,12.99
2019-05-10T00:10:43.811Z,12.89
2019-05-10T00:11:43.796Z,12.96
2019-05-10T00:12:43.800Z,12.96
2019-05-10T00:13:43.832Z,12.95
2019-05-10T00:14:43.769Z,12.99
2019-05-10T00:15:43.768Z,12.99
2019-05-10T00:16:43.800Z,12.98
2019-05-10T00:17:43.731Z,13.01
2019-05-10T00:18:43.731Z,13.04
2019-05-10T00:19:43.739Z,13.04
2019-05-10T00:20:43.696Z,13.06
2019-05-10T00:21:43.694Z,13.04
2019-05-10T00:22:43.674Z,13.09
2019-05-10T00:23:43.670Z,13.04
2019-05-10T00:24:43.683Z,13.06
2019-05-10T00:25:43.668Z,13.10
2019-05-10T00:26:43.645Z,13.07
2019-05-10T00:27:43.639Z,12.99
2019-05-10T00:28:43.609Z,13.06
2019-05-10T00:29:43.613Z,13.03
2019-05-10T00:30:43.590Z,12.96
2019-05-10T00:31:43.578Z,12.98
2019-05-10T00:32:43.596Z,12.94
2019-05-10T00:33:43.573Z,12.99
2019-05-10T00:34:43.577Z,12.94
2019-05-10T00:35:43.558Z,12.91
2019-05-10T00:36:43.534Z,12.91
2019-05-10T00:37:43.528Z,12.79
2019-05-10T00:38:43.513Z,12.85
2019-05-10T00:39:43.501Z,12.85
2019-05-10T00:40:43.536Z,12.87
2019-05-10T00:41:43.474Z,12.74
2019-05-10T00:42:43.472Z,12.85
2019-05-10T00:43:43.454Z,12.76
2019-05-10T00:44:43.459Z,12.69
2019-05-10T00:45:43.477Z,12.74
2019-05-10T00:46:43.443Z,12.62
2019-05-10T00:47:43.430Z,12.55
2019-05-10T00:48:43.421Z,12.63
2019-05-10T00:49:43.388Z,12.55
2019-05-10T00:50:43.396Z,12.61
2019-05-10T00:51:43.394Z,12.63
2019-05-10T00:52:43.382Z,12.62
2019-05-10T00:53:43.343Z,12.66
2019-05-10T00:54:43.338Z,12.66
2019-05-10T00:55:43.322Z,12.61
2019-05-10T00:56:43.329Z,12.71
2019-05-10T00:57:43.305Z,12.67
2019-05-10T00:58:43.305Z,12.71
2019-05-10T00:59:43.310Z,12.73
2019-05-10T01:00:43.272Z,12.71
2019-05-10T01:01:43.299Z,12.74
2019-05-10T01:02:43.249Z,12.74
2019-05-10T01:03:43.245Z,12.85
2019-05-10T01:04:43.230Z,12.85
2019-05-10T01:05:43.235Z,12.84
2019-05-10T01:06:43.206Z,12.76
2019-05-10T01:07:43.233Z,12.87
2019-05-10T01:08:43.217Z,12.85
2019-05-10T01:09:43.184Z,12.85
2019-05-10T01:10:43.192Z,12.85
2019-05-10T01:11:43.175Z,12.84
2019-05-10T01:12:43.166Z,12.76
2019-05-10T01:13:43.132Z,12.76
2019-05-10T01:14:43.135Z,12.71
2019-05-10T01:15:46.586Z,12.73
2019-05-10T01:16:43.102Z,12.73
2019-05-10T01:17:43.097Z,12.74
2019-05-10T01:18:43.099Z,12.84
2019-05-10T01:19:43.079Z,12.84
2019-05-10T01:20:43.069Z,12.87
2019-05-10T01:21:43.055Z,12.74
2019-05-10T01:22:43.038Z,12.85
2019-05-10T01:23:43.043Z,12.81
2019-05-10T01:24:43.022Z,12.76
2019-05-10T01:25:43.011Z,12.88
2019-05-10T01:26:42.997Z,12.89
2019-05-10T01:27:43.038Z,12.98
2019-05-10T01:28:43.020Z,13.01
2019-05-10T01:29:42.970Z,12.94
2019-05-10T01:30:42.954Z,13.04
2019-05-10T01:31:42.950Z,13.03
2019-05-10T01:32:42.931Z,13.09
2019-05-10T01:33:42.919Z,13.04
2019-05-10T01:34:42.931Z,13.10
2019-05-10T01:35:42.900Z,13.12
2019-05-10T01:36:42.897Z,13.04
2019-05-10T01:37:42.890Z,13.12
2019-05-10T01:38:42.879Z,13.06
2019-05-10T01:39:42.869Z,13.04
2019-05-10T01:40:42.848Z,13.09
2019-05-10T01:41:42.848Z,13.10
2019-05-10T01:42:42.831Z,13.07
2019-05-10T01:43:42.831Z,13.03
2019-05-10T01:44:42.830Z,13.09
2019-05-10T01:45:42.784Z,13.03
2019-05-10T01:46:42.789Z,13.06
2019-05-10T01:47:42.769Z,13.04
2019-05-10T01:48:42.758Z,13.01
2019-05-10T01:49:42.747Z,13.07
2019-05-10T01:50:42.759Z,13.03
2019-05-10T01:51:42.733Z,13.03
2019-05-10T01:52:42.724Z,12.98
2019-05-10T01:53:42.716Z,12.95
2019-05-10T01:54:42.703Z,13.01
2019-05-10T01:55:51.636Z,12.98
2019-05-10T01:56:43.675Z,12.99
2019-05-10T01:57:42.658Z,13.06
2019-05-10T01:58:42.666Z,13.01
2019-05-10T01:59:42.641Z,13.01
2019-05-10T02:00:42.648Z,12.98
2019-05-10T02:01:42.624Z,13.04
2019-05-10T02:02:42.615Z,13.04
2019-05-10T02:03:42.600Z,12.99
2019-05-10T02:04:42.594Z,13.06
2019-05-10T02:05:42.587Z,13.04
2019-05-10T02:06:42.588Z,13.09
2019-05-10T02:07:42.555Z,13.06
2019-05-10T02:08:42.546Z,13.12
2019-05-10T02:09:42.543Z,13.10
2019-05-10T02:10:42.545Z,13.14
2019-05-10T02:11:42.529Z,13.12
2019-05-10T02:12:42.513Z,13.06
2019-05-10T02:13:42.497Z,13.09
2019-05-10T02:14:42.486Z,13.10
2019-05-10T02:15:42.483Z,13.06
2019-05-10T02:16:42.486Z,13.10
2019-05-10T02:17:42.454Z,13.14
2019-05-10T02:18:42.439Z,13.19
2019-05-10T02:19:42.431Z,13.10
2019-05-10T02:20:42.440Z,13.09
2019-05-10T02:21:42.407Z,13.10
2019-05-10T02:22:42.427Z,13.13
2019-05-10T02:23:42.392Z,13.10
2019-05-10T02:24:42.385Z,13.14
2019-05-10T02:25:42.370Z,13.12
2019-05-10T02:26:42.358Z,13.16
2019-05-10T02:27:42.363Z,13.06
2019-05-10T02:28:42.344Z,13.10
2019-05-10T02:29:42.317Z,13.07
2019-05-10T02:30:42.321Z,13.09
2019-05-10T02:31:42.297Z,13.06
2019-05-10T02:32:42.314Z,13.03
2019-05-10T02:33:42.286Z,12.99
2019-05-10T02:34:42.271Z,12.96
2019-05-10T02:35:42.261Z,12.96
2019-05-10T02:36:42.248Z,12.87
2019-05-10T02:37:42.235Z,12.98
2019-05-10T02:38:42.263Z,12.95
2019-05-10T02:39:42.221Z,12.87
2019-05-10T02:40:42.206Z,12.94
2019-05-10T02:41:42.204Z,13.01
2019-05-10T02:42:42.178Z,13.01
2019-05-10T02:43:42.167Z,12.89
2019-05-10T02:44:42.244Z,12.92
2019-05-10T02:45:42.161Z,12.87
2019-05-10T02:46:42.148Z,12.88
2019-05-10T02:47:42.139Z,12.92
2019-05-10T02:48:42.115Z,12.91
2019-05-10T02:49:42.120Z,12.89
2019-05-10T02:50:42.097Z,12.91
2019-05-10T02:51:42.089Z,12.95
2019-05-10T02:52:42.078Z,12.91
2019-05-10T02:53:42.069Z,12.98
2019-05-10T02:54:42.079Z,12.95
2019-05-10T02:55:42.040Z,12.98
2019-05-10T02:56:42.026Z,12.95
2019-05-10T02:57:42.025Z,12.98
2019-05-10T02:58:42.011Z,12.99
2019-05-10T02:59:42.002Z,12.94
2019-05-10T03:00:42.016Z,12.98
2019-05-10T03:01:41.977Z,12.96
2019-05-10T03:02:41.974Z,12.95
2019-05-10T03:03:41.984Z,12.94
2019-05-10T03:04:41.946Z,12.95
2019-05-10T03:05:41.957Z,12.96
2019-05-10T03:06:41.931Z,12.96
2019-05-10T03:07:41.923Z,12.85
2019-05-10T03:08:41.913Z,12.84
2019-05-10T03:09:41.892Z,12.91
2019-05-10T03:10:41.925Z,12.89
2019-05-10T03:11:41.880Z,12.88
2019-05-10T03:12:41.955Z,12.88
2019-05-10T03:13:41.877Z,12.88
2019-05-10T03:14:41.850Z,12.85
2019-05-10T03:15:41.836Z,12.80
2019-05-10T03:16:41.842Z,12.84
2019-05-10T03:17:41.822Z,12.80
2019-05-10T03:18:41.800Z,12.87
2019-05-10T03:19:41.795Z,12.81
2019-05-10T03:20:41.779Z,12.71
2019-05-10T03:21:41.760Z,12.69
2019-05-10T03:22:41.768Z,12.69
2019-05-10T03:23:41.741Z,12.74
2019-05-10T03:24:41.733Z,12.70
2019-05-10T03:25:41.734Z,12.63
2019-05-10T03:26:51.007Z,12.74
2019-05-10T03:27:42.732Z,12.77
2019-05-10T03:28:41.695Z,12.61
2019-05-10T03:29:41.674Z,12.76
2019-05-10T03:30:41.670Z,12.73
2019-05-10T03:31:41.667Z,12.74
2019-05-10T03:32:41.667Z,12.73
2019-05-10T03:33:41.637Z,12.77
2019-05-10T03:34:41.627Z,12.63
2019-05-10T03:35:41.631Z,12.77
2019-05-10T03:36:41.620Z,12.76
2019-05-10T03:37:41.630Z,12.73
2019-05-10T03:38:41.588Z,12.70
2019-05-10T03:39:41.578Z,12.70
2019-05-10T03:40:41.562Z,12.63
2019-05-10T03:41:41.570Z,12.76
2019-05-10T03:42:41.586Z,12.73
2019-05-10T03:43:41.548Z,12.71
2019-05-10T03:44:41.522Z,12.69
2019-05-10T03:45:41.516Z,12.73
2019-05-10T03:46:41.510Z,12.79
2019-05-10T03:47:41.522Z,12.71
2019-05-10T03:48:41.484Z,12.66
2019-05-10T03:49:41.467Z,12.62
2019-05-10T03:50:41.464Z,12.66
2019-05-10T03:51:41.547Z,12.70
2019-05-10T03:52:41.464Z,12.63
2019-05-10T03:53:41.421Z,12.61
2019-05-10T03:54:41.421Z,12.55
2019-05-10T03:55:41.401Z,12.56
2019-05-10T03:56:41.392Z,12.58
2019-05-10T03:57:41.392Z,12.62
2019-05-10T03:58:41.399Z,12.55
2019-05-10T03:59:41.367Z,12.54
2019-05-10T04:00:41.353Z,12.58
2019-05-10T04:01:41.341Z,12.56
2019-05-10T04:02:41.355Z,12.52
2019-05-10T04:03:41.332Z,12.52
2019-05-10T04:04:41.295Z,12.46
2019-05-10T04:05:41.309Z,12.52
2019-05-10T04:06:41.310Z,12.44
2019-05-10T04:07:41.281Z,12.48
2019-05-10T04:08:41.308Z,12.56
2019-05-10T04:09:41.253Z,12.51
2019-05-10T04:10:41.240Z,12.51
2019-05-10T04:11:41.230Z,12.43
2019-05-10T04:12:41.223Z,12.59
2019-05-10T04:13:41.214Z,12.51
2019-05-10T04:14:41.219Z,12.56
2019-05-10T04:15:41.184Z,12.55
2019-05-10T04:16:41.187Z,12.56
2019-05-10T04:17:41.183Z,12.54
2019-05-10T04:18:41.149Z,12.54
2019-05-10T04:19:41.168Z,12.54
2019-05-10T04:20:41.145Z,12.56
2019-05-10T04:21:41.130Z,12.70
2019-05-10T04:22:41.123Z,12.61
2019-05-10T04:23:41.117Z,12.62
2019-05-10T04:24:41.096Z,12.70
2019-05-10T04:25:41.088Z,12.76
2019-05-10T04:26:41.089Z,12.74
2019-05-10T04:27:41.058Z,12.69
2019-05-10T04:28:41.053Z,12.77
2019-05-10T04:29:41.081Z,12.80
2019-05-10T04:30:41.062Z,12.81
2019-05-10T04:31:41.028Z,12.80
2019-05-10T04:32:41.005Z,12.84
2019-05-10T04:33:40.995Z,12.70
2019-05-10T04:34:40.997Z,12.85
2019-05-10T04:35:40.992Z,12.80
2019-05-10T04:36:40.973Z,12.80
2019-05-10T04:37:40.968Z,12.73
2019-05-10T04:38:40.935Z,12.79
2019-05-10T04:39:40.953Z,12.70
2019-05-10T04:40:40.946Z,12.87
2019-05-10T04:41:40.912Z,12.81
2019-05-10T04:42:40.901Z,12.76
2019-05-10T04:43:40.883Z,12.89
2019-05-10T04:44:40.882Z,12.81
2019-05-10T04:45:40.881Z,12.84
2019-05-10T04:46:40.854Z,12.79
2019-05-10T04:47:40.852Z,12.84
2019-05-10T04:48:40.845Z,12.88
2019-05-10T04:49:40.821Z,12.89
2019-05-10T04:50:40.812Z,12.88
2019-05-10T04:51:40.822Z,12.88
2019-05-10T04:52:40.791Z,12.91
2019-05-10T04:53:40.780Z,12.94
2019-05-10T04:54:40.791Z,12.98
2019-05-10T04:55:40.761Z,12.96
2019-05-10T04:56:40.762Z,12.99
2019-05-10T04:57:49.931Z,12.98
2019-05-10T04:58:41.728Z,13.03
2019-05-10T04:59:40.716Z,12.99
2019-05-10T05:00:40.711Z,12.99
2019-05-10T05:01:40.693Z,13.03
2019-05-10T05:02:40.708Z,13.06
2019-05-10T05:03:40.674Z,13.01
2019-05-10T05:04:40.661Z,13.09
2019-05-10T05:05:40.652Z,13.12
2019-05-10T05:06:40.638Z,13.07
2019-05-10T05:07:40.666Z,13.07
2019-05-10T05:08:40.615Z,13.12
2019-05-10T05:09:40.604Z,13.12
2019-05-10T05:10:40.595Z,13.03
2019-05-10T05:11:40.596Z,13.12
2019-05-10T05:12:40.605Z,13.14
2019-05-10T05:13:40.577Z,13.17
2019-05-10T05:14:40.576Z,13.19
2019-05-10T05:15:40.552Z,13.22
2019-05-10T05:16:40.530Z,13.24
2019-05-10T05:17:40.522Z,13.25
2019-05-10T05:18:40.539Z,13.28
2019-05-10T05:19:41.072Z,13.27
2019-05-10T05:20:40.494Z,13.24
2019-05-10T05:21:40.483Z,13.28
2019-05-10T05:22:40.472Z,13.32
2019-05-10T05:23:40.452Z,13.44
2019-05-10T05:24:40.469Z,13.35
2019-05-10T05:25:41.826Z,13.32
2019-05-10T05:26:40.425Z,13.39
2019-05-10T05:27:40.421Z,13.36
2019-05-10T05:28:40.409Z,13.39
2019-05-10T05:29:40.417Z,13.39
2019-05-10T05:30:40.378Z,13.43
2019-05-10T05:31:40.400Z,13.39
2019-05-10T05:32:44.438Z,13.46
2019-05-10T05:33:41.360Z,13.47
2019-05-10T05:34:40.368Z,13.51
2019-05-10T05:35:40.326Z,13.54
2019-05-10T05:36:40.320Z,13.44
2019-05-10T05:37:40.306Z,13.59
2019-05-10T05:38:46.749Z,13.57
2019-05-10T05:39:41.313Z,13.68
2019-05-10T05:40:40.264Z,13.71
2019-05-10T05:41:49.276Z,13.69
2019-05-10T05:42:41.246Z,13.73
2019-05-10T05:43:45.553Z,13.80
2019-05-10T05:44:41.236Z,13.83
2019-05-10T05:45:40.238Z,13.93
2019-05-10T05:46:40.212Z,13.93
2019-05-10T05:47:42.317Z,14.06
2019-05-10T05:48:40.762Z,14.05
2019-05-10T05:49:40.180Z,14.11
2019-05-10T05:50:40.186Z,14.23
2019-05-10T05:51:40.158Z,14.21
2019-05-10T05:52:40.169Z,14.21
2019-05-10T05:53:42.362Z,14.35
2019-05-10T05:54:40.133Z,14.45
2019-05-10T05:55:40.116Z,14.59
2019-05-10T05:56:44.473Z,14.60
2019-05-10T05:57:41.093Z,14.60
2019-05-10T05:58:44.484Z,14.74
2019-05-10T05:59:41.082Z,14.64
2019-05-10T06:00:44.844Z,14.80
2019-05-10T06:01:41.082Z,14.80
2019-05-10T06:02:45.053Z,14.98
2019-05-10T06:03:40.018Z,15.07
2019-05-10T06:04:40.794Z,15.13
2019-05-10T06:05:41.010Z,15.04
2019-05-10T06:06:39.994Z,15.09
2019-05-10T06:07:40.005Z,15.12
2019-05-10T06:08:39.970Z,15.18
2019-05-10T06:09:39.959Z,15.07
2019-05-10T06:10:43.690Z,15.18
2019-05-10T06:11:39.940Z,15.19
2019-05-10T06:12:44.459Z,15.27
2019-05-10T06:13:40.919Z,15.22
2019-05-10T06:14:43.351Z,15.19
2019-05-10T06:15:40.892Z,15.27
2019-05-10T06:16:45.139Z,15.31
2019-05-10T06:17:40.929Z,15.27
2019-05-10T06:18:41.522Z,15.19
2019-05-10T06:19:40.865Z,15.20
2019-05-10T06:20:44.575Z,15.23
2019-05-10T06:21:40.829Z,15.20
2019-05-10T06:22:43.823Z,15.13
2019-05-10T06:23:40.825Z,15.19
2019-05-10T06:24:39.808Z,15.15
2019-05-10T06:25:42.425Z,15.13
2019-05-10T06:26:39.786Z,15.19
2019-05-10T06:27:40.887Z,15.20
2019-05-10T06:28:59.825Z,15.01
2019-05-10T06:29:43.023Z,15.13
2019-05-10T06:30:39.746Z,15.09
2019-05-10T06:31:39.726Z,15.05
2019-05-10T06:32:39.759Z,15.11
2019-05-10T06:33:44.804Z,15.07
2019-05-10T06:34:40.724Z,15.05
2019-05-10T06:35:39.679Z,15.13
2019-05-10T06:36:39.822Z,15.27
2019-05-10T06:37:39.675Z,15.30
2019-05-10T06:38:39.654Z,15.20
2019-05-10T06:39:39.670Z,15.34
2019-05-10T06:40:46.830Z,15.48
2019-05-10T06:41:40.622Z,15.48
2019-05-10T06:42:39.616Z,15.59
2019-05-10T06:43:39.601Z,15.67
2019-05-10T06:44:39.607Z,15.70
2019-05-10T06:45:39.571Z,15.74
2019-05-10T06:46:39.562Z,15.78
2019-05-10T06:47:42.093Z,15.85
2019-05-10T06:48:40.543Z,15.85
2019-05-10T06:49:41.643Z,15.88
2019-05-10T06:50:40.519Z,15.80
2019-05-10T06:51:42.793Z,15.84
2019-05-10T06:52:40.507Z,15.89
2019-05-10T06:53:42.269Z,15.89
2019-05-10T06:54:40.486Z,15.92
2019-05-10T06:55:39.462Z,15.78
2019-05-10T06:56:39.459Z,15.74
2019-05-10T06:57:39.446Z,15.88
2019-05-10T06:58:39.431Z,15.93
2019-05-10T06:59:39.439Z,16.04
2019-05-10T07:00:44.649Z,16.08
2019-05-10T07:01:45.144Z,16.18
2019-05-10T07:02:40.393Z,16.33
2019-05-10T07:03:39.379Z,16.41
2019-05-10T07:04:41.092Z,16.59
2019-05-10T07:05:39.392Z,16.66
2019-05-10T07:06:39.352Z,16.82
2019-05-10T07:07:44.717Z,16.84
2019-05-10T07:08:44.192Z,16.99
2019-05-10T07:10:01.639Z,17.10
2019-05-10T07:10:40.326Z,17.09
2019-05-10T07:11:39.308Z,17.39
2019-05-10T07:12:39.440Z,17.53
2019-05-10T07:13:40.451Z,17.87
2019-05-10T07:14:45.638Z,18.14
2019-05-10T07:15:42.002Z,18.44
2019-05-10T07:16:39.251Z,18.99
2019-05-10T07:17:45.394Z,19.40
2019-05-10T07:18:40.214Z,18.96
2019-05-10T07:19:41.992Z,18.29
2019-05-10T07:20:43.146Z,17.79
2019-05-10T07:21:44.178Z,17.53
2019-05-10T07:22:40.181Z,17.42
2019-05-10T07:23:44.561Z,17.40
2019-05-10T07:24:40.149Z,17.22
2019-05-10T07:25:43.552Z,17.17
2019-05-10T07:26:40.136Z,16.85
2019-05-10T07:27:39.121Z,16.85
2019-05-10T07:28:39.132Z,16.80
2019-05-10T07:29:43.773Z,16.59
2019-05-10T07:30:41.352Z,16.55
2019-05-10T07:31:39.083Z,16.54
2019-05-10T07:32:39.092Z,16.25
2019-05-10T07:33:40.233Z,16.37
2019-05-10T07:34:39.059Z,16.16
2019-05-10T07:35:39.066Z,16.01
2019-05-10T07:36:39.018Z,15.88
2019-05-10T07:37:39.011Z,15.78
2019-05-10T07:38:39.002Z,15.77
2019-05-10T07:39:38.990Z,15.74
2019-05-10T07:40:38.997Z,15.88
2019-05-10T07:41:38.987Z,16.03
2019-05-10T07:42:39.914Z,16.08
2019-05-10T07:43:39.952Z,16.34
2019-05-10T07:44:41.404Z,16.42
2019-05-10T07:45:39.946Z,16.50
2019-05-10T07:46:40.201Z,16.52
2019-05-10T07:47:39.919Z,16.65
2019-05-10T07:48:41.317Z,16.69
2019-05-10T07:49:39.883Z,16.84
2019-05-10T07:50:42.571Z,17.18
2019-05-10T07:51:39.858Z,18.04
2019-05-10T07:52:43.618Z,18.75
2019-05-10T07:53:39.870Z,20.05
2019-05-10T07:54:45.203Z,21.63
2019-05-10T07:55:39.828Z,23.23
2019-05-10T07:56:45.412Z,24.19
2019-05-10T07:57:39.797Z,23.89
2019-05-10T07:58:43.303Z,23.29
2019-05-10T07:59:50.262Z,23.47
2019-05-10T08:00:44.253Z,24.44
2019-05-10T08:01:39.757Z,24.79
2019-05-10T08:02:38.749Z,26.27
2019-05-10T08:03:44.402Z,26.75
2019-05-10T08:04:39.725Z,25.11
2019-05-10T08:05:39.257Z,25.86
2019-05-10T08:06:43.452Z,26.32
2019-05-10T08:07:39.718Z,25.78
2019-05-10T08:08:39.217Z,25.02
2019-05-10T08:09:44.765Z,23.96
2019-05-10T08:10:40.599Z,22.72
2019-05-10T08:11:39.165Z,21.52
2019-05-10T08:12:43.719Z,20.63
2019-05-10T08:13:39.638Z,20.37
2019-05-10T08:14:39.361Z,20.22
2019-05-10T08:15:38.711Z,20.42
2019-05-10T08:16:38.813Z,20.30
2019-05-10T08:17:41.114Z,19.89
2019-05-10T08:18:42.297Z,19.89
2019-05-10T08:19:39.061Z,19.97
2019-05-10T08:20:49.253Z,20.33
2019-05-10T08:21:41.811Z,21.56
2019-05-10T08:22:41.454Z,20.88
2019-05-10T08:23:41.094Z,20.58
2019-05-10T08:24:38.514Z,20.20
2019-05-10T08:25:43.922Z,20.16
2019-05-10T08:26:39.519Z,20.48
2019-05-10T08:27:43.999Z,20.61
2019-05-10T08:28:43.862Z,19.75
2019-05-10T08:29:39.460Z,18.99
2019-05-10T08:30:42.739Z,18.42
2019-05-10T08:31:40.915Z,17.95
2019-05-10T08:32:39.421Z,17.89
2019-05-10T08:33:38.414Z,17.98
2019-05-10T08:34:40.256Z,17.89
2019-05-10T08:35:43.391Z,18.04
2019-05-10T08:36:43.434Z,18.05
2019-05-10T08:37:39.411Z,18.10
2019-05-10T08:38:39.750Z,18.01
2019-05-10T08:39:45.183Z,18.39
2019-05-10T08:40:39.365Z,19.43
2019-05-10T08:41:38.350Z,19.24
2019-05-10T08:42:45.421Z,18.96
2019-05-10T08:43:40.781Z,18.96
2019-05-10T08:44:38.323Z,19.70
2019-05-10T08:45:38.776Z,19.71
2019-05-10T08:46:41.399Z,20.97
2019-05-10T08:47:38.269Z,22.59
2019-05-10T08:48:43.461Z,23.25
2019-05-10T08:49:54.194Z,23.54
2019-05-10T08:50:49.663Z,23.21
2019-05-10T08:51:43.823Z,22.11
2019-05-10T08:52:39.219Z,22.76
2019-05-10T08:53:38.232Z,22.93
2019-05-10T08:54:38.194Z,22.35
2019-05-10T08:55:38.193Z,21.16
2019-05-10T08:56:38.180Z,22.61
2019-05-10T08:57:44.296Z,24.29
2019-05-10T08:58:39.181Z,24.93
2019-05-10T08:59:38.138Z,25.63
2019-05-10T09:00:49.531Z,26.01
2019-05-10T09:02:39.117Z,26.23
2019-05-10T09:03:38.110Z,25.69
2019-05-10T09:04:45.384Z,23.32
2019-05-10T09:05:40.041Z,21.56
2019-05-10T09:06:38.071Z,20.30
2019-05-10T09:07:39.107Z,19.72
2019-05-10T09:08:38.063Z,19.20
2019-05-10T09:09:45.816Z,18.76
2019-05-10T09:10:39.020Z,18.39
2019-05-10T09:11:38.019Z,18.20
2019-05-10T09:12:44.241Z,17.99
2019-05-10T09:13:45.024Z,18.19
2019-05-10T09:14:39.010Z,18.14
2019-05-10T09:15:43.287Z,18.19
2019-05-10T09:16:44.220Z,18.14
2019-05-10T09:17:38.951Z,18.26
2019-05-10T09:18:42.690Z,18.26
2019-05-10T09:19:41.778Z,18.32
2019-05-10T09:20:38.927Z,18.35
2019-05-10T09:21:42.916Z,18.31
2019-05-10T09:22:38.901Z,18.28
2019-05-10T09:23:37.882Z,18.44
2019-05-10T09:24:43.073Z,18.64
2019-05-10T09:25:38.867Z,18.89
2019-05-10T09:26:37.859Z,19.24
2019-05-10T09:27:37.854Z,20.13
2019-05-10T09:28:37.828Z,20.90
2019-05-10T09:29:37.840Z,20.82
2019-05-10T09:30:53.160Z,21.12
2019-05-10T09:31:39.329Z,21.15
2019-05-10T09:32:39.960Z,20.82
2019-05-10T09:33:42.945Z,20.60
2019-05-10T09:34:38.807Z,20.33
2019-05-10T09:35:38.854Z,20.10
2019-05-10T09:36:38.770Z,19.45
2019-05-10T09:37:37.733Z,19.30
2019-05-10T09:38:39.645Z,18.90
2019-05-10T09:39:38.797Z,18.34
2019-05-10T09:40:42.441Z,17.91
2019-05-10T09:41:38.704Z,17.63
2019-05-10T09:42:40.294Z,17.51
2019-05-10T09:43:40.571Z,17.53
2019-05-10T09:44:38.676Z,17.40
2019-05-10T09:45:37.653Z,17.35
2019-05-10T09:46:37.659Z,17.22
2019-05-10T09:47:37.642Z,17.10
2019-05-10T09:48:37.624Z,17.02
2019-05-10T09:49:37.610Z,16.98
2019-05-10T09:50:44.318Z,16.85
2019-05-10T09:51:38.615Z,16.90
2019-05-10T09:52:37.688Z,16.78
2019-05-10T09:53:38.470Z,16.67
2019-05-10T09:54:38.091Z,16.63
2019-05-10T09:55:37.550Z,16.57
2019-05-10T09:56:39.621Z,16.54
2019-05-10T09:57:38.598Z,16.52
2019-05-10T09:58:38.660Z,16.54
2019-05-10T09:59:37.511Z,16.55
2019-05-10T10:00:38.154Z,16.60
2019-05-10T10:01:37.497Z,16.60
2019-05-10T10:02:40.618Z,16.62
2019-05-10T10:03:43.199Z,16.75
2019-05-10T10:04:38.457Z,16.95
2019-05-10T10:05:39.872Z,17.02
2019-05-10T10:06:41.816Z,16.84
2019-05-10T10:07:38.456Z,16.87
2019-05-10T10:08:38.406Z,17.00
2019-05-10T10:09:44.507Z,16.95
2019-05-10T10:10:38.391Z,16.98
2019-05-10T10:11:37.385Z,16.96
2019-05-10T10:12:37.470Z,16.99
2019-05-10T10:13:43.309Z,16.80
2019-05-10T10:14:42.985Z,16.80
2019-05-10T10:15:38.349Z,16.80
2019-05-10T10:16:37.332Z,16.75
2019-05-10T10:17:41.933Z,16.82
2019-05-10T10:18:38.295Z,16.84
2019-05-10T10:19:40.536Z,16.78
2019-05-10T10:20:43.429Z,16.87
2019-05-10T10:21:39.059Z,16.82
2019-05-10T10:22:38.078Z,17.03
2019-05-10T10:23:37.760Z,17.25
2019-05-10T10:24:40.464Z,17.42
2019-05-10T10:25:40.481Z,17.30
2019-05-10T10:26:37.869Z,17.14
2019-05-10T10:27:39.555Z,17.06
2019-05-10T10:28:39.604Z,17.18
2019-05-10T10:29:38.799Z,17.22
2019-05-10T10:30:37.539Z,17.24
2019-05-10T10:31:48.450Z,17.24
2019-05-10T10:32:38.153Z,17.32
2019-05-10T10:33:37.929Z,17.54
2019-05-10T10:34:38.722Z,17.68
2019-05-10T10:35:38.219Z,17.87
2019-05-10T10:36:40.121Z,18.04
2019-05-10T10:37:38.154Z,18.04
2019-05-10T10:38:45.478Z,18.13
2019-05-10T10:39:38.112Z,18.25
2019-05-10T10:40:44.335Z,18.29
2019-05-10T10:41:38.040Z,18.39
2019-05-10T10:42:38.006Z,18.47
2019-05-10T10:43:37.307Z,18.44
2019-05-10T10:44:37.229Z,18.49
2019-05-10T10:45:37.773Z,18.42
2019-05-10T10:46:36.986Z,18.38
2019-05-10T10:47:38.082Z,18.44
2019-05-10T10:48:37.141Z,18.38
2019-05-10T10:49:37.807Z,18.32
2019-05-10T10:50:36.963Z,18.26
2019-05-10T10:51:37.933Z,18.26
2019-05-10T10:52:37.595Z,18.36
2019-05-10T10:53:36.920Z,18.35
2019-05-10T10:54:39.801Z,18.44
2019-05-10T10:55:39.998Z,18.50
2019-05-10T10:56:37.497Z,18.41
2019-05-10T10:57:37.435Z,18.39
2019-05-10T10:58:36.854Z,18.46
2019-05-10T10:59:37.458Z,18.68
2019-05-10T11:00:39.033Z,19.20
2019-05-10T11:01:49.220Z,19.16
2019-05-10T11:02:41.249Z,19.46
2019-05-10T11:03:36.817Z,19.58
2019-05-10T11:04:40.617Z,19.35
2019-05-10T11:05:37.812Z,19.20
2019-05-10T11:06:36.775Z,19.17
2019-05-10T11:07:41.124Z,18.96
2019-05-10T11:08:37.753Z,18.78
2019-05-10T11:09:36.742Z,18.68
2019-05-10T11:10:36.734Z,18.74
2019-05-10T11:11:44.407Z,18.60
2019-05-10T11:12:37.714Z,18.51
2019-05-10T11:13:44.006Z,18.41
2019-05-10T11:14:39.895Z,18.36
2019-05-10T11:15:37.680Z,18.21
2019-05-10T11:16:36.672Z,18.28
2019-05-10T11:17:36.648Z,18.36
2019-05-10T11:18:36.640Z,18.35
2019-05-10T11:19:36.637Z,18.35
2019-05-10T11:20:36.629Z,18.50
2019-05-10T11:21:36.635Z,18.59
2019-05-10T11:22:41.999Z,18.44
2019-05-10T11:23:39.068Z,18.65
2019-05-10T11:24:36.575Z,18.74
2019-05-10T11:25:36.577Z,18.76
2019-05-10T11:26:37.068Z,18.83
2019-05-10T11:27:36.541Z,19.02
2019-05-10T11:28:43.866Z,19.07
2019-05-10T11:29:37.532Z,19.01
2019-05-10T11:30:36.518Z,19.02
2019-05-10T11:31:36.531Z,19.01
2019-05-10T11:32:36.512Z,18.90
2019-05-10T11:33:36.482Z,18.84
2019-05-10T11:34:38.823Z,18.84
2019-05-10T11:35:36.465Z,18.84
2019-05-10T11:36:40.509Z,18.84
2019-05-10T11:37:37.475Z,18.82
2019-05-10T11:38:36.423Z,18.64
2019-05-10T11:39:42.025Z,18.46
2019-05-10T11:40:37.411Z,18.25
2019-05-10T11:41:36.397Z,18.05
2019-05-10T11:42:37.553Z,17.83
2019-05-10T11:43:37.387Z,17.92
2019-05-10T11:44:41.569Z,18.20
2019-05-10T11:45:37.348Z,18.31
2019-05-10T11:46:36.344Z,18.68
2019-05-10T11:47:36.334Z,19.07
2019-05-10T11:48:37.771Z,19.23
2019-05-10T11:49:36.312Z,19.57
2019-05-10T11:50:36.299Z,19.89
2019-05-10T11:51:36.286Z,20.05
2019-05-10T11:52:36.612Z,20.33
2019-05-10T11:53:36.311Z,20.61
2019-05-10T11:54:36.266Z,20.90
2019-05-10T11:55:40.020Z,20.94
2019-05-10T11:56:36.282Z,20.71
2019-05-10T11:57:36.239Z,20.50
2019-05-10T11:58:37.468Z,20.23
2019-05-10T11:59:41.241Z,19.82
2019-05-10T12:00:36.286Z,19.75
2019-05-10T12:01:41.453Z,19.90
2019-05-10T12:02:42.480Z,20.10
2019-05-10T12:03:37.185Z,19.97
2019-05-10T12:04:39.140Z,20.00
2019-05-10T12:05:37.178Z,20.50
2019-05-10T12:06:41.399Z,20.56
2019-05-10T12:07:45.382Z,20.90
2019-05-10T12:08:37.112Z,20.96
2019-05-10T12:09:36.142Z,21.00
2019-05-10T12:10:44.894Z,21.11
2019-05-10T12:11:43.704Z,21.12
2019-05-10T12:12:54.425Z,21.05
2019-05-10T12:13:37.063Z,21.09
2019-05-10T12:14:36.107Z,21.33
2019-05-10T12:15:36.089Z,21.09
2019-05-10T12:16:36.061Z,20.31
2019-05-10T12:17:36.030Z,19.97
2019-05-10T12:18:36.533Z,19.72
2019-05-10T12:19:44.465Z,19.23
2019-05-10T12:20:51.082Z,18.65
2019-05-10T12:21:37.021Z,18.41
2019-05-10T12:22:38.588Z,18.25
2019-05-10T12:23:45.777Z,18.29
2019-05-10T12:24:52.114Z,18.02
2019-05-10T12:25:51.379Z,17.80
2019-05-10T12:27:45.131Z,17.47
2019-05-10T12:28:36.903Z,17.05
2019-05-10T12:29:35.925Z,16.65
2019-05-10T12:30:37.308Z,16.32
2019-05-10T12:31:35.890Z,16.17
2019-05-10T12:32:38.867Z,16.26
2019-05-10T12:33:36.871Z,16.27
2019-05-10T12:34:36.230Z,16.30
2019-05-10T12:35:40.756Z,16.25
2019-05-10T12:36:36.818Z,16.16
2019-05-10T12:37:39.587Z,16.18
2019-05-10T12:38:38.518Z,16.30
2019-05-10T12:39:35.827Z,16.22
2019-05-10T12:40:35.777Z,16.33
2019-05-10T12:41:39.788Z,16.45
2019-05-10T12:42:36.760Z,16.50
2019-05-10T12:43:35.737Z,16.55
2019-05-10T12:44:38.841Z,16.62
2019-05-10T12:45:36.713Z,16.66
2019-05-10T12:46:38.735Z,16.70
2019-05-10T12:47:36.691Z,16.62
2019-05-10T12:48:36.079Z,16.54
2019-05-10T12:49:36.513Z,16.67
2019-05-10T12:50:35.665Z,16.59
2019-05-10T12:51:35.647Z,16.40
2019-05-10T12:52:35.629Z,16.29
2019-05-10T12:53:36.700Z,16.22
2019-05-10T12:54:36.642Z,16.17